sensor_id;sensor_type;location;lat;lon;timestamp;pressure;altitude;pressure_sealevel;temperature;humidity
3434;BME280;1730;41.932;25.548;2023-04-27T00:02:11;98891.84;;;12.31;100.00
3434;BME280;1730;41.932;25.548;2023-04-27T00:04:36;98872.50;;;12.19;100.00
3434;BME280;1730;41.932;25.548;2023-04-27T00:07:02;98910.66;;;12.16;100.00
3434;BME280;1730;41.932;25.548;2023-04-27T00:09:27;98942.78;;;12.03;100.00
3434;BME280;1730;41.932;25.548;2023-04-27T00:11:53;98980.00;;;11.93;100.00
3434;BME280;1730;41.932;25.548;2023-04-27T00:14:19;99030.97;;;11.96;100.00
3434;BME280;1730;41.932;25.548;2023-04-27T00:16:45;99039.41;;;12.01;100.00
3434;BME280;1730;41.932;25.548;2023-04-27T00:19:11;99063.75;;;11.93;100.00
3434;BME280;1730;41.932;25.548;2023-04-27T00:21:38;99067.09;;;11.95;100.00
3434;BME280;1730;41.932;25.548;2023-04-27T00:24:04;99076.72;;;11.89;100.00
3434;BME280;1730;41.932;25.548;2023-04-27T00:26:29;98993.63;;;11.26;100.00
3434;BME280;1730;41.932;25.548;2023-04-27T00:28:55;99132.09;;;11.77;100.00
3434;BME280;1730;41.932;25.548;2023-04-27T00:31:21;99170.41;;;11.72;100.00
3434;BME280;1730;41.932;25.548;2023-04-27T00:33:46;99180.00;;;11.67;100.00
3434;BME280;1730;41.932;25.548;2023-04-27T00:36:12;99207.66;;;11.61;100.00
3434;BME280;1730;41.932;25.548;2023-04-27T00:38:37;99238.63;;;11.74;100.00
3434;BME280;1730;41.932;25.548;2023-04-27T00:41:04;99259.25;;;11.76;100.00
3434;BME280;1730;41.932;25.548;2023-04-27T00:43:30;99234.84;;;11.67;100.00
3434;BME280;1730;41.932;25.548;2023-04-27T00:45:57;99253.91;;;11.58;100.00
3434;BME280;1730;41.932;25.548;2023-04-27T00:48:23;99282.59;;;11.59;100.00
3434;BME280;1730;41.932;25.548;2023-04-27T00:50:49;99298.50;;;11.62;100.00
3434;BME280;1730;41.932;25.548;2023-04-27T00:53:15;99305.84;;;11.52;100.00
3434;BME280;1730;41.932;25.548;2023-04-27T00:55:41;99278.66;;;11.19;100.00
3434;BME280;1730;41.932;25.548;2023-04-27T00:58:07;99252.69;;;10.93;100.00
3434;BME280;1730;41.932;25.548;2023-04-27T01:00:35;99340.31;;;11.32;100.00
3434;BME280;1730;41.932;25.548;2023-04-27T01:03:01;99385.50;;;11.48;100.00
3434;BME280;1730;41.932;25.548;2023-04-27T01:05:29;99344.34;;;11.28;100.00
3434;BME280;1730;41.932;25.548;2023-04-27T01:07:55;99407.41;;;11.70;100.00
3434;BME280;1730;41.932;25.548;2023-04-27T01:10:20;99409.69;;;11.57;100.00
3434;BME280;1730;41.932;25.548;2023-04-27T01:12:46;99399.19;;;11.54;100.00
3434;BME280;1730;41.932;25.548;2023-04-27T01:15:12;99318.88;;;11.05;100.00
3434;BME280;1730;41.932;25.548;2023-04-27T01:17:37;99428.78;;;11.64;100.00
3434;BME280;1730;41.932;25.548;2023-04-27T01:20:03;99464.84;;;11.72;100.00
3434;BME280;1730;41.932;25.548;2023-04-27T01:22:31;99412.72;;;11.37;100.00
3434;BME280;1730;41.932;25.548;2023-04-27T01:24:57;99487.16;;;11.57;100.00
3434;BME280;1730;41.932;25.548;2023-04-27T01:27:23;99517.78;;;11.65;100.00
3434;BME280;1730;41.932;25.548;2023-04-27T01:29:49;99474.53;;;11.22;100.00
3434;BME280;1730;41.932;25.548;2023-04-27T01:32:14;99541.94;;;11.49;100.00
3434;BME280;1730;41.932;25.548;2023-04-27T01:34:40;99436.41;;;10.72;100.00
3434;BME280;1730;41.932;25.548;2023-04-27T01:37:05;99558.50;;;11.37;100.00
3434;BME280;1730;41.932;25.548;2023-04-27T01:39:31;99584.06;;;11.42;100.00
3434;BME280;1730;41.932;25.548;2023-04-27T01:41:56;99551.34;;;11.27;100.00
3434;BME280;1730;41.932;25.548;2023-04-27T01:44:22;99589.06;;;11.37;100.00
3434;BME280;1730;41.932;25.548;2023-04-27T01:46:48;99618.63;;;11.56;100.00
3434;BME280;1730;41.932;25.548;2023-04-27T01:49:14;99620.34;;;11.57;100.00
3434;BME280;1730;41.932;25.548;2023-04-27T01:51:39;99601.00;;;11.17;100.00
3434;BME280;1730;41.932;25.548;2023-04-27T01:54:05;99617.75;;;11.38;100.00
3434;BME280;1730;41.932;25.548;2023-04-27T01:56:30;99619.47;;;11.39;100.00
3434;BME280;1730;41.932;25.548;2023-04-27T01:58:56;99636.84;;;11.54;100.00
3434;BME280;1730;41.932;25.548;2023-04-27T02:01:21;99627.50;;;11.49;100.00
3434;BME280;1730;41.932;25.548;2023-04-27T02:03:47;99621.66;;;11.53;100.00
3434;BME280;1730;41.932;25.548;2023-04-27T02:06:12;99610.38;;;11.40;100.00
3434;BME280;1730;41.932;25.548;2023-04-27T02:08:38;99642.94;;;11.56;100.00
3434;BME280;1730;41.932;25.548;2023-04-27T02:11:03;99670.31;;;11.44;100.00
3434;BME280;1730;41.932;25.548;2023-04-27T02:13:29;99704.88;;;11.40;100.00
3434;BME280;1730;41.932;25.548;2023-04-27T02:15:55;99697.22;;;11.36;100.00
3434;BME280;1730;41.932;25.548;2023-04-27T02:18:20;99671.66;;;11.30;100.00
3434;BME280;1730;41.932;25.548;2023-04-27T02:20:46;99664.81;;;11.36;100.00
3434;BME280;1730;41.932;25.548;2023-04-27T02:23:11;99625.59;;;11.14;100.00
3434;BME280;1730;41.932;25.548;2023-04-27T02:25:37;99676.72;;;11.43;100.00
3434;BME280;1730;41.932;25.548;2023-04-27T02:28:03;99680.31;;;11.34;100.00
3434;BME280;1730;41.932;25.548;2023-04-27T02:30:29;99741.78;;;11.49;100.00
3434;BME280;1730;41.932;25.548;2023-04-27T02:32:58;99650.25;;;11.01;100.00
3434;BME280;1730;41.932;25.548;2023-04-27T02:35:23;99728.78;;;11.62;100.00
3434;BME280;1730;41.932;25.548;2023-04-27T02:37:49;99691.06;;;11.43;100.00
3434;BME280;1730;41.932;25.548;2023-04-27T02:40:14;99693.47;;;11.46;100.00
3434;BME280;1730;41.932;25.548;2023-04-27T02:42:40;99701.38;;;11.30;100.00
3434;BME280;1730;41.932;25.548;2023-04-27T02:45:06;99715.00;;;11.28;100.00
3434;BME280;1730;41.932;25.548;2023-04-27T02:47:32;99747.47;;;11.46;100.00
3434;BME280;1730;41.932;25.548;2023-04-27T02:49:58;99771.38;;;11.68;100.00
3434;BME280;1730;41.932;25.548;2023-04-27T02:52:23;99747.69;;;11.62;100.00
3434;BME280;1730;41.932;25.548;2023-04-27T02:54:49;99758.56;;;11.80;100.00
3434;BME280;1730;41.932;25.548;2023-04-27T02:57:15;99754.53;;;11.57;100.00
3434;BME280;1730;41.932;25.548;2023-04-27T02:59:40;99767.19;;;11.56;100.00
3434;BME280;1730;41.932;25.548;2023-04-27T03:02:06;99755.47;;;11.65;100.00
3434;BME280;1730;41.932;25.548;2023-04-27T03:04:31;99724.19;;;11.63;100.00
3434;BME280;1730;41.932;25.548;2023-04-27T03:06:58;99634.16;;;11.09;100.00
3434;BME280;1730;41.932;25.548;2023-04-27T03:09:24;99717.91;;;11.72;100.00
3434;BME280;1730;41.932;25.548;2023-04-27T03:11:49;99612.03;;;11.23;100.00
3434;BME280;1730;41.932;25.548;2023-04-27T03:14:15;99694.78;;;11.60;100.00
3434;BME280;1730;41.932;25.548;2023-04-27T03:16:41;99700.25;;;11.78;100.00
3434;BME280;1730;41.932;25.548;2023-04-27T03:19:06;99689.78;;;11.74;100.00
3434;BME280;1730;41.932;25.548;2023-04-27T03:21:32;99598.59;;;11.14;100.00
3434;BME280;1730;41.932;25.548;2023-04-27T03:23:57;99688.50;;;11.69;100.00
3434;BME280;1730;41.932;25.548;2023-04-27T03:26:23;99603.16;;;11.13;100.00
3434;BME280;1730;41.932;25.548;2023-04-27T03:28:48;99718.25;;;11.59;100.00
3434;BME280;1730;41.932;25.548;2023-04-27T03:31:14;99755.25;;;11.86;100.00
3434;BME280;1730;41.932;25.548;2023-04-27T03:33:40;99725.13;;;11.54;100.00
3434;BME280;1730;41.932;25.548;2023-04-27T03:36:06;99730.34;;;11.55;100.00
3434;BME280;1730;41.932;25.548;2023-04-27T03:38:33;99755.34;;;11.67;100.00
3434;BME280;1730;41.932;25.548;2023-04-27T03:40:58;99734.16;;;11.35;100.00
3434;BME280;1730;41.932;25.548;2023-04-27T03:43:24;99751.28;;;11.53;100.00
3434;BME280;1730;41.932;25.548;2023-04-27T03:45:50;99747.22;;;11.40;100.00
3434;BME280;1730;41.932;25.548;2023-04-27T03:48:16;99771.63;;;11.48;100.00
3434;BME280;1730;41.932;25.548;2023-04-27T03:50:42;99779.31;;;11.43;100.00
3434;BME280;1730;41.932;25.548;2023-04-27T03:53:08;99774.53;;;11.64;100.00
3434;BME280;1730;41.932;25.548;2023-04-27T03:55:38;99772.37;;;11.67;100.00
3434;BME280;1730;41.932;25.548;2023-04-27T03:58:04;99779.78;;;11.75;100.00
3434;BME280;1730;41.932;25.548;2023-04-27T04:00:30;99754.63;;;11.65;100.00
3434;BME280;1730;41.932;25.548;2023-04-27T04:02:57;99699.03;;;11.45;100.00
3434;BME280;1730;41.932;25.548;2023-04-27T04:05:22;99745.59;;;11.84;100.00
3434;BME280;1730;41.932;25.548;2023-04-27T04:07:48;99698.19;;;11.89;100.00
3434;BME280;1730;41.932;25.548;2023-04-27T04:10:14;99687.75;;;11.94;100.00
3434;BME280;1730;41.932;25.548;2023-04-27T04:12:41;99671.09;;;11.81;100.00
3434;BME280;1730;41.932;25.548;2023-04-27T04:15:06;99677.19;;;11.83;100.00
3434;BME280;1730;41.932;25.548;2023-04-27T04:17:32;99683.84;;;11.89;100.00
3434;BME280;1730;41.932;25.548;2023-04-27T04:19:58;99688.34;;;11.98;100.00
3434;BME280;1730;41.932;25.548;2023-04-27T04:22:24;99675.41;;;11.92;100.00
3434;BME280;1730;41.932;25.548;2023-04-27T04:24:49;99673.97;;;11.80;100.00
3434;BME280;1730;41.932;25.548;2023-04-27T04:27:15;99639.53;;;11.54;100.00
3434;BME280;1730;41.932;25.548;2023-04-27T04:29:41;99701.75;;;12.25;100.00
3434;BME280;1730;41.932;25.548;2023-04-27T04:32:06;99631.56;;;11.98;100.00
3434;BME280;1730;41.932;25.548;2023-04-27T04:34:34;99652.78;;;12.28;100.00
3434;BME280;1730;41.932;25.548;2023-04-27T04:37:00;99604.50;;;12.15;100.00
3434;BME280;1730;41.932;25.548;2023-04-27T04:39:30;99601.47;;;12.36;100.00
3434;BME280;1730;41.932;25.548;2023-04-27T04:41:55;99619.00;;;12.58;100.00
3434;BME280;1730;41.932;25.548;2023-04-27T04:44:21;99597.78;;;12.71;100.00
3434;BME280;1730;41.932;25.548;2023-04-27T04:46:47;99577.75;;;12.64;100.00
3434;BME280;1730;41.932;25.548;2023-04-27T04:49:13;99567.59;;;12.58;100.00
3434;BME280;1730;41.932;25.548;2023-04-27T04:51:44;99527.06;;;12.66;100.00
3434;BME280;1730;41.932;25.548;2023-04-27T04:54:10;99519.13;;;12.73;100.00
3434;BME280;1730;41.932;25.548;2023-04-27T04:56:36;99503.34;;;12.94;100.00
3434;BME280;1730;41.932;25.548;2023-04-27T04:59:02;99479.62;;;12.88;100.00
3434;BME280;1730;41.932;25.548;2023-04-27T05:01:28;99464.69;;;12.68;100.00
3434;BME280;1730;41.932;25.548;2023-04-27T05:03:54;99354.69;;;11.84;100.00
3434;BME280;1730;41.932;25.548;2023-04-27T05:06:19;99486.81;;;12.63;100.00
3434;BME280;1730;41.932;25.548;2023-04-27T05:08:45;99489.63;;;12.45;100.00
3434;BME280;1730;41.932;25.548;2023-04-27T05:11:11;99497.66;;;12.63;100.00
3434;BME280;1730;41.932;25.548;2023-04-27T05:13:37;99481.06;;;12.66;100.00
3434;BME280;1730;41.932;25.548;2023-04-27T05:16:06;99477.59;;;12.90;100.00
3434;BME280;1730;41.932;25.548;2023-04-27T05:18:35;99496.59;;;13.06;100.00
3434;BME280;1730;41.932;25.548;2023-04-27T05:21:01;99443.56;;;12.79;100.00
3434;BME280;1730;41.932;25.548;2023-04-27T05:23:26;99448.59;;;13.24;100.00
3434;BME280;1730;41.932;25.548;2023-04-27T05:25:52;99423.22;;;13.33;100.00
3434;BME280;1730;41.932;25.548;2023-04-27T05:28:17;99384.41;;;13.57;100.00
3434;BME280;1730;41.932;25.548;2023-04-27T05:30:43;99328.53;;;13.56;100.00
3434;BME280;1730;41.932;25.548;2023-04-27T05:33:08;99312.56;;;14.16;100.00
3434;BME280;1730;41.932;25.548;2023-04-27T05:35:34;99276.63;;;14.45;100.00
3434;BME280;1730;41.932;25.548;2023-04-27T05:38:00;99165.06;;;14.63;100.00
3434;BME280;1730;41.932;25.548;2023-04-27T05:40:26;99087.81;;;15.39;100.00
3434;BME280;1730;41.932;25.548;2023-04-27T05:42:51;98796.28;;;14.17;100.00
3434;BME280;1730;41.932;25.548;2023-04-27T05:45:18;99029.81;;;16.10;100.00
3434;BME280;1730;41.932;25.548;2023-04-27T05:47:44;99017.09;;;16.17;100.00
3434;BME280;1730;41.932;25.548;2023-04-27T05:50:10;98947.22;;;16.17;100.00
3434;BME280;1730;41.932;25.548;2023-04-27T05:52:36;98999.28;;;16.77;100.00
3434;BME280;1730;41.932;25.548;2023-04-27T05:55:01;98971.78;;;17.12;100.00
3434;BME280;1730;41.932;25.548;2023-04-27T05:57:28;98960.22;;;17.71;100.00
3434;BME280;1730;41.932;25.548;2023-04-27T05:59:54;98929.44;;;18.68;100.00
3434;BME280;1730;41.932;25.548;2023-04-27T06:02:19;98935.22;;;19.29;100.00
3434;BME280;1730;41.932;25.548;2023-04-27T06:04:45;98928.94;;;17.93;100.00
3434;BME280;1730;41.932;25.548;2023-04-27T06:07:12;98848.38;;;17.19;100.00
3434;BME280;1730;41.932;25.548;2023-04-27T06:09:39;98940.41;;;16.69;100.00
3434;BME280;1730;41.932;25.548;2023-04-27T06:12:05;98959.56;;;15.64;100.00
3434;BME280;1730;41.932;25.548;2023-04-27T06:14:32;98967.56;;;15.72;100.00
3434;BME280;1730;41.932;25.548;2023-04-27T06:16:58;98984.72;;;15.73;100.00
3434;BME280;1730;41.932;25.548;2023-04-27T06:19:23;98983.22;;;15.92;100.00
3434;BME280;1730;41.932;25.548;2023-04-27T06:21:49;98975.19;;;15.41;100.00
3434;BME280;1730;41.932;25.548;2023-04-27T06:24:15;99000.47;;;15.42;100.00
3434;BME280;1730;41.932;25.548;2023-04-27T06:26:41;98980.72;;;15.12;100.00
3434;BME280;1730;41.932;25.548;2023-04-27T06:29:06;99021.41;;;14.61;100.00
3434;BME280;1730;41.932;25.548;2023-04-27T06:31:35;99009.91;;;14.59;100.00
3434;BME280;1730;41.932;25.548;2023-04-27T06:34:01;98904.66;;;14.25;100.00
3434;BME280;1730;41.932;25.548;2023-04-27T06:36:26;99025.34;;;14.73;100.00
3434;BME280;1730;41.932;25.548;2023-04-27T06:38:56;99025.09;;;15.19;100.00
3434;BME280;1730;41.932;25.548;2023-04-27T06:41:23;99023.78;;;15.15;100.00
3434;BME280;1730;41.932;25.548;2023-04-27T06:43:49;99007.66;;;15.49;100.00
3434;BME280;1730;41.932;25.548;2023-04-27T06:46:15;99001.28;;;14.85;100.00
3434;BME280;1730;41.932;25.548;2023-04-27T06:48:40;98983.47;;;15.33;100.00
3434;BME280;1730;41.932;25.548;2023-04-27T06:51:06;98903.94;;;14.82;100.00
3434;BME280;1730;41.932;25.548;2023-04-27T06:53:32;98995.03;;;15.42;100.00
3434;BME280;1730;41.932;25.548;2023-04-27T06:55:57;98961.25;;;15.65;100.00
3434;BME280;1730;41.932;25.548;2023-04-27T06:58:23;98912.72;;;14.84;100.00
3434;BME280;1730;41.932;25.548;2023-04-27T07:00:48;98977.41;;;15.73;100.00
3434;BME280;1730;41.932;25.548;2023-04-27T07:03:14;98977.97;;;15.48;100.00
3434;BME280;1730;41.932;25.548;2023-04-27T07:05:43;98949.19;;;14.60;100.00
3434;BME280;1730;41.932;25.548;2023-04-27T07:08:08;98987.41;;;15.30;100.00
3434;BME280;1730;41.932;25.548;2023-04-27T07:10:34;98986.84;;;15.35;100.00
3434;BME280;1730;41.932;25.548;2023-04-27T07:12:59;98974.69;;;14.80;100.00
3434;BME280;1730;41.932;25.548;2023-04-27T07:15:25;98947.66;;;14.87;100.00
3434;BME280;1730;41.932;25.548;2023-04-27T07:17:51;98970.31;;;15.15;100.00
3434;BME280;1730;41.932;25.548;2023-04-27T07:20:19;98977.13;;;14.90;100.00
3434;BME280;1730;41.932;25.548;2023-04-27T07:22:44;98900.09;;;14.91;100.00
3434;BME280;1730;41.932;25.548;2023-04-27T07:25:10;98955.13;;;15.42;100.00
3434;BME280;1730;41.932;25.548;2023-04-27T07:27:36;98977.41;;;14.95;100.00
3434;BME280;1730;41.932;25.548;2023-04-27T07:30:03;98980.84;;;15.40;100.00
3434;BME280;1730;41.932;25.548;2023-04-27T07:32:29;98974.88;;;14.79;100.00
3434;BME280;1730;41.932;25.548;2023-04-27T07:34:56;98969.22;;;14.59;100.00
3434;BME280;1730;41.932;25.548;2023-04-27T07:37:22;98993.91;;;15.51;100.00
3434;BME280;1730;41.932;25.548;2023-04-27T07:39:49;98981.56;;;15.12;100.00
3434;BME280;1730;41.932;25.548;2023-04-27T07:42:15;98894.47;;;14.27;100.00
3434;BME280;1730;41.932;25.548;2023-04-27T07:44:40;98973.63;;;14.60;100.00
3434;BME280;1730;41.932;25.548;2023-04-27T07:47:07;98997.66;;;14.78;100.00
3434;BME280;1730;41.932;25.548;2023-04-27T07:49:33;98995.22;;;14.83;100.00
3434;BME280;1730;41.932;25.548;2023-04-27T07:52:01;98984.25;;;14.76;100.00
3434;BME280;1730;41.932;25.548;2023-04-27T07:54:26;98990.13;;;14.95;100.00
3434;BME280;1730;41.932;25.548;2023-04-27T07:56:52;98688.66;;;12.42;100.00
3434;BME280;1730;41.932;25.548;2023-04-27T07:59:18;98992.97;;;14.72;100.00
3434;BME280;1730;41.932;25.548;2023-04-27T08:01:44;98883.59;;;14.27;100.00
3434;BME280;1730;41.932;25.548;2023-04-27T08:04:09;98868.56;;;14.39;100.00
3434;BME280;1730;41.932;25.548;2023-04-27T08:06:37;98992.31;;;15.20;100.00
3434;BME280;1730;41.932;25.548;2023-04-27T08:09:02;98785.53;;;14.38;100.00
3434;BME280;1730;41.932;25.548;2023-04-27T08:11:28;98993.06;;;15.50;100.00
3434;BME280;1730;41.932;25.548;2023-04-27T08:13:54;98995.06;;;15.63;100.00
3434;BME280;1730;41.932;25.548;2023-04-27T08:16:20;98904.69;;;14.76;100.00
3434;BME280;1730;41.932;25.548;2023-04-27T08:18:45;98994.13;;;15.13;100.00
3434;BME280;1730;41.932;25.548;2023-04-27T08:21:11;98994.22;;;15.05;100.00
3434;BME280;1730;41.932;25.548;2023-04-27T08:23:36;98698.75;;;13.23;100.00
3434;BME280;1730;41.932;25.548;2023-04-27T08:26:03;98870.72;;;13.85;100.00
3434;BME280;1730;41.932;25.548;2023-04-27T08:28:28;98890.06;;;13.97;100.00
3434;BME280;1730;41.932;25.548;2023-04-27T08:30:54;98999.62;;;14.40;100.00
3434;BME280;1730;41.932;25.548;2023-04-27T08:33:19;98887.81;;;14.00;100.00
3434;BME280;1730;41.932;25.548;2023-04-27T08:35:45;98992.31;;;14.40;100.00
3434;BME280;1730;41.932;25.548;2023-04-27T08:38:10;98682.97;;;12.37;100.00
3434;BME280;1730;41.932;25.548;2023-04-27T08:40:43;98874.69;;;13.45;100.00
3434;BME280;1730;41.932;25.548;2023-04-27T08:43:09;98927.94;;;14.05;100.00
3434;BME280;1730;41.932;25.548;2023-04-27T08:45:35;98951.72;;;14.47;100.00
3434;BME280;1730;41.932;25.548;2023-04-27T08:48:01;98848.63;;;14.18;100.00
3434;BME280;1730;41.932;25.548;2023-04-27T08:50:26;98989.78;;;15.19;100.00
3434;BME280;1730;41.932;25.548;2023-04-27T08:52:52;98995.94;;;15.27;100.00
3434;BME280;1730;41.932;25.548;2023-04-27T08:55:19;98980.75;;;15.33;100.00
3434;BME280;1730;41.932;25.548;2023-04-27T08:57:55;98970.06;;;15.31;100.00
3434;BME280;1730;41.932;25.548;2023-04-27T09:00:23;98917.94;;;15.00;100.00
3434;BME280;1730;41.932;25.548;2023-04-27T09:02:49;98971.37;;;15.36;100.00
3434;BME280;1730;41.932;25.548;2023-04-27T09:05:20;98957.87;;;15.63;100.00
3434;BME280;1730;41.932;25.548;2023-04-27T09:07:56;98888.47;;;15.95;100.00
3434;BME280;1730;41.932;25.548;2023-04-27T09:10:22;98958.69;;;16.47;100.00
3434;BME280;1730;41.932;25.548;2023-04-27T09:12:58;98822.19;;;15.62;100.00
3434;BME280;1730;41.932;25.548;2023-04-27T09:15:24;98926.91;;;16.20;100.00
3434;BME280;1730;41.932;25.548;2023-04-27T09:17:56;98763.59;;;15.31;100.00
3434;BME280;1730;41.932;25.548;2023-04-27T09:20:22;98944.53;;;16.24;100.00
3434;BME280;1730;41.932;25.548;2023-04-27T09:22:50;98944.03;;;16.83;100.00
3434;BME280;1730;41.932;25.548;2023-04-27T09:25:28;98952.25;;;16.55;100.00
3434;BME280;1730;41.932;25.548;2023-04-27T09:27:55;98946.22;;;15.97;100.00
3434;BME280;1730;41.932;25.548;2023-04-27T09:30:22;98934.50;;;16.59;100.00
3434;BME280;1730;41.932;25.548;2023-04-27T09:32:57;98933.16;;;16.48;100.00
3434;BME280;1730;41.932;25.548;2023-04-27T09:35:28;98932.34;;;16.89;100.00
3434;BME280;1730;41.932;25.548;2023-04-27T09:37:54;98938.19;;;16.51;100.00
3434;BME280;1730;41.932;25.548;2023-04-27T09:40:22;98932.28;;;16.07;100.00
3434;BME280;1730;41.932;25.548;2023-04-27T09:42:51;98934.78;;;16.71;100.00
3434;BME280;1730;41.932;25.548;2023-04-27T09:45:17;98927.22;;;17.53;100.00
3434;BME280;1730;41.932;25.548;2023-04-27T09:47:44;98920.53;;;17.82;100.00
3434;BME280;1730;41.932;25.548;2023-04-27T09:50:11;98928.25;;;17.39;100.00
3434;BME280;1730;41.932;25.548;2023-04-27T09:52:37;98599.19;;;15.36;100.00
3434;BME280;1730;41.932;25.548;2023-04-27T09:55:07;98907.56;;;16.36;100.00
3434;BME280;1730;41.932;25.548;2023-04-27T10:03:54;98937.12;;;16.11;100.00
3434;BME280;1730;41.932;25.548;2023-04-27T10:09:26;98919.19;;;17.12;100.00
3434;BME280;1730;41.932;25.548;2023-04-27T10:11:53;98911.25;;;17.24;100.00
3434;BME280;1730;41.932;25.548;2023-04-27T10:14:20;98911.44;;;17.09;100.00
3434;BME280;1730;41.932;25.548;2023-04-27T10:16:57;98918.81;;;17.28;100.00
3434;BME280;1730;41.932;25.548;2023-04-27T10:19:24;98921.50;;;17.22;100.00
3434;BME280;1730;41.932;25.548;2023-04-27T10:21:57;98921.53;;;17.35;100.00
3434;BME280;1730;41.932;25.548;2023-04-27T10:27:05;98923.03;;;16.70;100.00
3434;BME280;1730;41.932;25.548;2023-04-27T10:29:38;98927.56;;;16.56;100.00
3434;BME280;1730;41.932;25.548;2023-04-27T10:32:06;98933.09;;;17.37;100.00
3434;BME280;1730;41.932;25.548;2023-04-27T10:34:34;98893.47;;;17.41;100.00
3434;BME280;1730;41.932;25.548;2023-04-27T10:37:08;98852.78;;;16.52;100.00
3434;BME280;1730;41.932;25.548;2023-04-27T10:39:36;98839.12;;;15.64;100.00
3434;BME280;1730;41.932;25.548;2023-04-27T10:42:03;98922.47;;;16.47;100.00
3434;BME280;1730;41.932;25.548;2023-04-27T10:44:30;98926.50;;;17.11;100.00
3434;BME280;1730;41.932;25.548;2023-04-27T10:46:58;98922.00;;;16.78;100.00
3434;BME280;1730;41.932;25.548;2023-04-27T10:49:26;98920.63;;;16.54;100.00
3434;BME280;1730;41.932;25.548;2023-04-27T10:51:52;98923.28;;;16.75;100.00
3434;BME280;1730;41.932;25.548;2023-04-27T10:54:18;98932.00;;;17.38;100.00
3434;BME280;1730;41.932;25.548;2023-04-27T10:56:44;98863.31;;;16.62;100.00
3434;BME280;1730;41.932;25.548;2023-04-27T10:59:09;98812.87;;;16.18;100.00
3434;BME280;1730;41.932;25.548;2023-04-27T11:01:36;98920.97;;;16.85;100.00
3434;BME280;1730;41.932;25.548;2023-04-27T11:04:03;98919.81;;;17.14;100.00
3434;BME280;1730;41.932;25.548;2023-04-27T11:06:29;98791.41;;;16.50;100.00
3434;BME280;1730;41.932;25.548;2023-04-27T11:08:57;98934.03;;;16.96;100.00
3434;BME280;1730;41.932;25.548;2023-04-27T11:11:23;98925.09;;;16.61;100.00
3434;BME280;1730;41.932;25.548;2023-04-27T11:13:50;98625.84;;;14.57;100.00
3434;BME280;1730;41.932;25.548;2023-04-27T11:16:20;98783.59;;;15.80;100.00
3434;BME280;1730;41.932;25.548;2023-04-27T11:18:45;98722.91;;;15.66;100.00
3434;BME280;1730;41.932;25.548;2023-04-27T11:21:13;98923.09;;;16.83;100.00
3434;BME280;1730;41.932;25.548;2023-04-27T11:23:40;98542.75;;;15.31;100.00
3434;BME280;1730;41.932;25.548;2023-04-27T11:28:39;98915.47;;;17.33;100.00
3434;BME280;1730;41.932;25.548;2023-04-27T11:31:05;98911.50;;;17.42;100.00
3434;BME280;1730;41.932;25.548;2023-04-27T11:33:31;98915.91;;;17.95;100.00
3434;BME280;1730;41.932;25.548;2023-04-27T11:35:58;98916.78;;;17.83;100.00
3434;BME280;1730;41.932;25.548;2023-04-27T11:38:25;98910.03;;;18.12;100.00
3434;BME280;1730;41.932;25.548;2023-04-27T11:41:03;98909.63;;;17.95;100.00
3434;BME280;1730;41.932;25.548;2023-04-27T11:43:30;98686.47;;;16.14;100.00
3434;BME280;1730;41.932;25.548;2023-04-27T11:45:57;98907.12;;;17.67;100.00
3434;BME280;1730;41.932;25.548;2023-04-27T11:48:26;98929.06;;;17.26;100.00
3434;BME280;1730;41.932;25.548;2023-04-27T11:50:53;98923.38;;;17.08;100.00
3434;BME280;1730;41.932;25.548;2023-04-27T11:53:38;98914.00;;;17.24;100.00
3434;BME280;1730;41.932;25.548;2023-04-27T11:56:06;98822.78;;;16.93;100.00
3434;BME280;1730;41.932;25.548;2023-04-27T11:58:35;98904.09;;;17.09;100.00
3434;BME280;1730;41.932;25.548;2023-04-27T12:01:06;98932.53;;;17.68;100.00
3434;BME280;1730;41.932;25.548;2023-04-27T12:03:33;98908.97;;;17.40;100.00
3434;BME280;1730;41.932;25.548;2023-04-27T12:05:58;98921.16;;;17.97;100.00
3434;BME280;1730;41.932;25.548;2023-04-27T12:08:24;98919.47;;;17.96;100.00
3434;BME280;1730;41.932;25.548;2023-04-27T12:10:50;98623.97;;;15.67;100.00
3434;BME280;1730;41.932;25.548;2023-04-27T12:13:16;98923.00;;;17.31;100.00
3434;BME280;1730;41.932;25.548;2023-04-27T12:15:42;98926.44;;;17.66;100.00
3434;BME280;1730;41.932;25.548;2023-04-27T12:18:13;98792.97;;;16.85;100.00
3434;BME280;1730;41.932;25.548;2023-04-27T12:20:38;98687.59;;;15.45;100.00
3434;BME280;1730;41.932;25.548;2023-04-27T12:23:04;98795.59;;;15.98;100.00
3434;BME280;1730;41.932;25.548;2023-04-27T12:25:29;98436.78;;;13.74;100.00
3434;BME280;1730;41.932;25.548;2023-04-27T12:27:55;98938.91;;;17.14;100.00
3434;BME280;1730;41.932;25.548;2023-04-27T12:30:22;98937.59;;;17.03;100.00
3434;BME280;1730;41.932;25.548;2023-04-27T12:32:48;98936.91;;;16.82;100.00
3434;BME280;1730;41.932;25.548;2023-04-27T12:35:13;98937.78;;;16.95;100.00
3434;BME280;1730;41.932;25.548;2023-04-27T12:37:39;98934.03;;;16.96;100.00
3434;BME280;1730;41.932;25.548;2023-04-27T12:40:05;98896.37;;;16.59;100.00
3434;BME280;1730;41.932;25.548;2023-04-27T12:42:32;98939.94;;;17.06;100.00
3434;BME280;1730;41.932;25.548;2023-04-27T12:44:57;98939.69;;;16.54;100.00
3434;BME280;1730;41.932;25.548;2023-04-27T12:47:23;98938.97;;;16.73;100.00
3434;BME280;1730;41.932;25.548;2023-04-27T12:49:48;98950.09;;;16.44;100.00
3434;BME280;1730;41.932;25.548;2023-04-27T12:52:15;98882.63;;;16.74;100.00
3434;BME280;1730;41.932;25.548;2023-04-27T12:54:40;98851.88;;;16.39;100.00
3434;BME280;1730;41.932;25.548;2023-04-27T12:57:06;98941.16;;;16.56;100.00
3434;BME280;1730;41.932;25.548;2023-04-27T12:59:32;98823.97;;;16.23;100.00
3434;BME280;1730;41.932;25.548;2023-04-27T13:01:58;98958.41;;;17.11;100.00
3434;BME280;1730;41.932;25.548;2023-04-27T13:04:25;98924.31;;;17.61;100.00
3434;BME280;1730;41.932;25.548;2023-04-27T13:06:51;98931.44;;;17.82;100.00
3434;BME280;1730;41.932;25.548;2023-04-27T13:09:17;98717.59;;;15.99;100.00
3434;BME280;1730;41.932;25.548;2023-04-27T13:14:17;98937.00;;;17.08;100.00